Terminal Aerodrome Forecast
Issued by NWS Tampa Bay Area, FL

Home | Current Version | Previous Version | Text Only | Print | Product List | Glossary On
Versions: 1 2 3 4 5 6 7 8 9 10 11 12 13 14 15 16 17 18 19
000
FTUS42 KTBW 280901 AAA
TAFFMY
TAF AMD
KFMY 280901Z 2809/0106 09003KT 3SM BR FEW015
      TEMPO 2809/2812 1SM BR BKN005
     FM281400 12010KT P6SM SCT035
     FM282200 18007KT P6SM SCT040
     FM010100 VRB03KT P6SM FEW020=

USA.gov is the U.S. government's official web portal to all federal, state and local government web resources and services.